createdAt,value
2023-01-21T00:13:16.517Z,25.50
2023-01-21T00:18:18.311Z,22.90
2023-01-21T00:23:20.211Z,24.20
2023-01-21T00:28:22.361Z,22.90
2023-01-21T00:33:24.267Z,22.90
2023-01-21T00:38:26.096Z,25.70
2023-01-21T00:43:28.247Z,21.50
2023-01-21T00:48:34.597Z,24.50
2023-01-21T00:53:41.926Z,25.90
2023-01-21T00:58:43.674Z,21.80
2023-01-21T01:03:47.112Z,28.80
2023-01-21T01:08:49.839Z,27.60
2023-01-21T01:13:52.147Z,25.80
2023-01-21T01:18:54.173Z,29.60
2023-01-21T01:23:57.700Z,25.20
2023-01-21T01:29:00.442Z,22.70
2023-01-21T01:34:02.219Z,29.60
2023-01-21T01:39:05.238Z,25.20
2023-01-21T01:44:45.778Z,18.40
2023-01-21T01:49:48.369Z,20.50
2023-01-21T01:54:54.905Z,23.90
2023-01-21T01:59:57.173Z,21.70
2023-01-21T02:05:04.583Z,21.60
2023-01-21T02:10:11.867Z,17.30
2023-01-21T02:15:13.578Z,21.20
2023-01-21T02:20:33.856Z,22.20
2023-01-21T02:25:55.144Z,21.40
2023-01-21T02:31:10.581Z,20.30
2023-01-21T02:36:43.444Z,21.20
2023-01-21T02:42:06.503Z,13.70
2023-01-21T02:47:38.216Z,13.20
2023-01-21T02:52:39.938Z,15.70
2023-01-21T03:03:20.271Z,14.00
2023-01-21T03:08:30.519Z,14.00
2023-01-21T03:14:00.793Z,11.90
2023-01-21T03:19:06.730Z,12.60
2023-01-21T03:24:11.027Z,15.80
2023-01-21T03:29:17.559Z,12.30
2023-01-21T03:34:20.285Z,11.20
2023-01-21T03:39:42.763Z,15.80
2023-01-21T03:44:46.119Z,14.80
2023-01-21T03:49:52.325Z,11.30
2023-01-21T03:54:54.455Z,8.90
2023-01-21T03:59:56.350Z,11.60
2023-01-21T04:04:58.421Z,13.50
2023-01-21T04:10:00.165Z,9.50
2023-01-21T04:15:05.068Z,9.30
2023-01-21T04:20:08.219Z,9.90
2023-01-21T04:25:10.114Z,15.60
2023-01-21T04:30:12.011Z,14.10
2023-01-21T04:35:13.826Z,9.60
2023-01-21T04:40:15.929Z,10.70
2023-01-21T04:45:17.967Z,9.40
2023-01-21T04:50:19.782Z,7.70
2023-01-21T04:55:21.486Z,6.10
2023-01-21T05:05:25.308Z,8.20
2023-01-21T05:10:27.121Z,6.70
2023-01-21T05:15:29.215Z,8.80
2023-01-21T05:20:31.035Z,7.60
2023-01-21T05:30:34.434Z,6.80
2023-01-21T05:35:36.150Z,10.00
2023-01-21T05:40:37.965Z,6.40
2023-01-21T05:45:39.658Z,5.50
2023-01-21T05:55:43.112Z,6.70
2023-01-21T06:00:56.423Z,8.50
2023-01-21T06:05:58.192Z,8.80
2023-01-21T06:11:00.025Z,9.10
2023-01-21T06:16:01.902Z,9.80
2023-01-21T06:21:03.741Z,16.90
2023-01-21T06:26:05.485Z,13.20
2023-01-21T06:31:07.354Z,11.60
2023-01-21T06:36:09.444Z,9.70
2023-01-21T06:41:11.557Z,8.40
2023-01-21T06:46:13.874Z,13.50
2023-01-21T06:51:15.681Z,8.80
2023-01-21T06:56:17.658Z,13.70
2023-01-21T07:01:19.353Z,11.20
2023-01-21T07:06:22.465Z,10.70
2023-01-21T07:11:28.262Z,9.90
2023-01-21T07:16:30.023Z,10.80
2023-01-21T07:21:31.868Z,8.30
2023-01-21T07:26:37.850Z,12.70
2023-01-21T07:31:39.799Z,10.90
2023-01-21T07:36:41.669Z,11.60
2023-01-21T07:41:46.161Z,15.90
2023-01-21T07:46:47.837Z,12.20
2023-01-21T07:56:51.133Z,12.00
2023-01-21T08:01:53.080Z,10.30
2023-01-21T08:06:57.155Z,9.80
2023-01-21T08:11:59.073Z,14.10
2023-01-21T08:17:01.478Z,11.30
2023-01-21T08:22:03.303Z,10.50
2023-01-21T08:27:05.044Z,9.60
2023-01-21T08:32:06.818Z,11.00
2023-01-21T08:37:08.552Z,10.00
2023-01-21T08:42:10.197Z,9.60
2023-01-21T08:57:15.430Z,9.90
2023-01-21T09:02:17.146Z,8.10
2023-01-21T09:07:19.005Z,10.50
2023-01-21T09:12:20.959Z,10.70
2023-01-21T09:17:23.352Z,10.60
2023-01-21T09:22:25.118Z,8.40
2023-01-21T09:27:28.274Z,9.40
2023-01-21T09:32:34.201Z,7.60
2023-01-21T09:37:36.025Z,6.10
2023-01-21T09:42:37.759Z,8.70
2023-01-21T09:47:43.753Z,9.80
2023-01-21T09:52:48.759Z,13.70
2023-01-21T09:58:20.143Z,11.90
2023-01-21T10:03:36.230Z,7.80
2023-01-21T10:08:48.951Z,10.30
2023-01-21T10:13:56.559Z,7.00
2023-01-21T10:19:01.310Z,9.40
2023-01-21T10:24:11.939Z,8.90
2023-01-21T10:29:18.950Z,8.60
2023-01-21T10:34:20.697Z,7.30
2023-01-21T10:39:31.334Z,12.60
2023-01-21T10:44:53.162Z,7.80
2023-01-21T10:50:00.658Z,8.40
2023-01-21T10:55:17.692Z,9.10
2023-01-21T11:00:33.558Z,8.10
2023-01-21T11:05:35.744Z,9.90
2023-01-21T11:10:39.976Z,11.80
2023-01-21T11:15:53.286Z,12.20
2023-01-21T11:20:59.225Z,9.00
2023-01-21T11:26:04.211Z,9.40
2023-01-21T11:31:27.196Z,9.80
2023-01-21T11:36:29.255Z,8.60
2023-01-21T11:41:31.869Z,8.40
2023-01-21T11:46:39.524Z,10.20
2023-01-21T11:51:44.807Z,12.80
2023-01-21T11:56:56.469Z,11.70
2023-01-21T12:07:05.726Z,10.10
2023-01-21T12:12:56.620Z,10.80
2023-01-21T12:18:20.547Z,8.10
2023-01-21T12:23:40.959Z,8.30
2023-01-21T12:28:48.880Z,11.90
2023-01-21T12:33:57.947Z,8.10
2023-01-21T12:39:16.713Z,9.30
2023-01-21T12:44:27.299Z,10.50
2023-01-21T12:49:53.774Z,8.90
2023-01-21T12:55:23.279Z,10.50
2023-01-21T13:00:29.382Z,11.00
2023-01-21T13:05:53.156Z,9.80
2023-01-21T13:11:03.383Z,12.70
2023-01-21T13:16:08.882Z,11.20
2023-01-21T13:21:35.389Z,11.00
2023-01-21T13:26:50.989Z,10.70
2023-01-21T13:32:17.524Z,9.90
2023-01-21T13:37:42.273Z,9.40
2023-01-21T13:42:57.792Z,8.70
2023-01-21T13:48:22.216Z,9.10
2023-01-21T13:53:35.415Z,11.80
2023-01-21T13:58:51.559Z,9.70
2023-01-21T14:04:04.731Z,10.70
2023-01-21T14:09:18.311Z,11.30
2023-01-21T14:14:46.850Z,11.90
2023-01-21T14:20:24.104Z,16.60
2023-01-21T14:25:52.794Z,10.80
2023-01-21T14:31:13.874Z,17.20
2023-01-21T14:36:24.063Z,12.30
2023-01-21T14:42:04.625Z,11.90
2023-01-21T14:47:22.821Z,15.50
2023-01-21T14:52:37.777Z,24.20
2023-01-21T14:57:42.766Z,15.50
2023-01-21T15:02:53.336Z,13.90
2023-01-21T15:08:07.290Z,16.50
2023-01-21T15:13:34.298Z,18.40
2023-01-21T15:18:39.240Z,23.50
2023-01-21T15:23:43.950Z,18.00
2023-01-21T15:28:55.907Z,19.40
2023-01-21T15:34:01.813Z,22.60
2023-01-21T15:39:13.833Z,22.60
2023-01-21T15:44:18.506Z,23.10
2023-01-21T15:49:38.456Z,28.20
2023-01-21T15:54:52.452Z,37.00
2023-01-21T16:00:22.303Z,54.70
2023-01-21T16:05:36.450Z,70.30
2023-01-21T16:11:15.770Z,95.40
2023-01-21T16:21:36.454Z,56.40
2023-01-21T16:26:38.129Z,49.30
2023-01-21T16:31:59.938Z,44.80
2023-01-21T16:37:06.312Z,50.80
2023-01-21T16:42:23.600Z,55.90
2023-01-21T16:47:33.458Z,48.60
2023-01-21T16:52:35.567Z,50.30
2023-01-21T16:57:37.551Z,42.90
2023-01-21T17:02:39.361Z,42.90
2023-01-21T17:07:51.978Z,46.10
2023-01-21T17:12:58.588Z,46.60
2023-01-21T17:18:01.005Z,40.00
2023-01-21T17:23:07.769Z,35.00
2023-01-21T17:28:29.127Z,29.60
2023-01-21T17:33:31.141Z,28.30
2023-01-21T17:38:39.702Z,33.50
2023-01-21T17:43:49.191Z,40.50
2023-01-21T17:48:54.860Z,34.00
2023-01-21T17:54:03.928Z,31.60
2023-01-21T17:59:34.569Z,35.60
2023-01-21T18:04:36.314Z,39.10
2023-01-21T18:09:38.203Z,36.70
2023-01-21T18:14:40.925Z,34.00
2023-01-21T18:19:42.842Z,46.90
2023-01-21T18:24:44.645Z,52.40
2023-01-21T18:29:48.035Z,61.00
2023-01-21T18:34:49.757Z,75.00
2023-01-21T18:39:51.435Z,94.30
2023-01-21T18:44:53.229Z,100.30
2023-01-21T18:49:54.994Z,84.60
2023-01-21T18:54:58.320Z,69.30
2023-01-21T19:00:00.228Z,81.00
2023-01-21T19:05:02.081Z,75.00
2023-01-21T19:10:04.271Z,84.90
2023-01-21T19:15:08.676Z,83.50
2023-01-21T19:20:20.268Z,89.20
2023-01-21T19:25:25.615Z,80.20
2023-01-21T19:30:32.396Z,88.50
2023-01-21T19:35:59.730Z,85.80
2023-01-21T19:41:01.746Z,82.70
2023-01-21T19:46:03.550Z,105.40
2023-01-21T19:51:05.590Z,102.70
2023-01-21T19:56:23.268Z,104.00
2023-01-21T20:01:25.035Z,102.20
2023-01-21T20:06:30.087Z,92.70
2023-01-21T20:11:31.937Z,91.00
2023-01-21T20:16:34.042Z,156.30
2023-01-21T20:21:40.115Z,155.10
2023-01-21T20:26:44.737Z,153.10
2023-01-21T20:31:46.531Z,155.50
2023-01-21T20:36:49.686Z,162.10
2023-01-21T20:41:51.434Z,154.60
2023-01-21T20:46:54.308Z,165.80
2023-01-21T20:51:56.102Z,156.40
2023-01-21T20:56:57.846Z,145.50
2023-01-21T21:01:59.581Z,138.80
2023-01-21T21:07:01.263Z,150.00
2023-01-21T21:12:03.101Z,140.20
2023-01-21T21:17:09.828Z,134.30
2023-01-21T21:22:11.560Z,122.50
2023-01-21T21:27:13.429Z,126.20
2023-01-21T21:32:15.237Z,125.20
2023-01-21T21:37:16.966Z,115.90
2023-01-21T21:42:37.227Z,116.70
2023-01-21T21:47:57.521Z,117.10
2023-01-21T21:52:59.210Z,109.40
2023-01-21T21:58:00.902Z,114.30
2023-01-21T22:03:02.861Z,146.70
2023-01-21T22:08:04.739Z,117.10
2023-01-21T22:13:09.218Z,144.00
2023-01-21T22:23:12.521Z,136.60
2023-01-21T22:28:14.291Z,117.30
2023-01-21T22:33:16.413Z,128.60
2023-01-21T22:38:19.492Z,124.10
2023-01-21T22:43:21.300Z,156.00
2023-01-21T22:48:23.741Z,131.00
2023-01-21T22:53:26.650Z,140.00
2023-01-21T22:58:30.437Z,182.20
2023-01-21T23:03:32.969Z,174.60
2023-01-21T23:08:37.753Z,208.70
2023-01-21T23:13:39.827Z,228.80
2023-01-21T23:18:42.211Z,247.50
2023-01-21T23:23:44.381Z,220.00
2023-01-21T23:28:47.221Z,271.60
2023-01-21T23:33:54.571Z,271.10
2023-01-21T23:38:56.291Z,255.90
2023-01-21T23:44:01.860Z,221.10
2023-01-21T23:49:03.626Z,245.10
2023-01-21T23:54:05.471Z,223.70
2023-01-21T23:59:07.739Z,227.80
